Time;durP1;ratioP1;P1;durP2;ratioP2;P2;SDS_P1;SDS_P2;PMS_P1;PMS_P2;Temp;Humidity;BMP_temperature;BMP_pressure;BME280_temperature;BME280_humidity;BME280_pressure;Samples;Min_cycle;Max_cycle;Signal;HPM_P1;HPM_P2
2023/05/25 00:02:03;;;;;;;14.05;3.17;;;13.30;99.90;;;;;;5029153;28;20022;-72
2023/05/25 00:04:29;;;;;;;7.22;1.92;;;13.30;99.90;;;;;;5028812;28;20061;-71
2023/05/25 00:06:55;;;;;;;6.63;2.45;;;13.30;99.90;;;;;;5012439;28;20037;-72
2023/05/25 00:09:21;;;;;;;7.13;2.60;;;13.20;99.90;;;;;;5013641;28;20383;-72
2023/05/25 00:11:46;;;;;;;7.78;2.40;;;13.30;99.90;;;;;;5013599;28;20022;-71
2023/05/25 00:14:12;;;;;;;8.63;2.55;;;13.20;99.90;;;;;;5013638;28;20057;-71
2023/05/25 00:16:39;;;;;;;11.35;2.65;;;13.20;99.90;;;;;;5013635;28;20108;-72
2023/05/25 00:19:05;;;;;;;8.43;2.28;;;13.20;99.90;;;;;;5013643;28;20018;-71
2023/05/25 00:21:33;;;;;;;5.13;2.50;;;13.10;99.90;;;;;;5013618;28;20386;-71
2023/05/25 00:23:59;;;;;;;6.25;2.58;;;13.00;99.90;;;;;;5013610;28;20105;-72
2023/05/25 00:26:25;;;;;;;5.60;2.25;;;12.90;99.90;;;;;;5013523;28;20049;-71
2023/05/25 00:28:51;;;;;;;5.97;2.60;;;12.90;99.90;;;;;;5013325;28;20046;-71
2023/05/25 00:31:17;;;;;;;8.45;2.88;;;12.80;99.90;;;;;;5013520;28;20482;-71
2023/05/25 00:33:42;;;;;;;10.80;2.28;;;12.80;99.90;;;;;;5013403;28;20034;-72
2023/05/25 00:36:08;;;;;;;7.07;2.25;;;12.70;99.90;;;;;;5013277;28;20097;-71
2023/05/25 00:38:34;;;;;;;4.97;2.20;;;12.70;99.90;;;;;;5013340;28;20029;-71
2023/05/25 00:40:59;;;;;;;9.65;2.65;;;12.70;99.90;;;;;;5013296;28;20049;-71
2023/05/25 00:43:25;;;;;;;4.03;2.08;;;12.70;99.90;;;;;;5028422;28;20025;-71
2023/05/25 00:45:51;;;;;;;6.28;2.90;;;12.60;99.90;;;;;;5013247;28;20486;-71
2023/05/25 00:48:17;;;;;;;9.43;3.10;;;12.60;99.90;;;;;;5013449;28;20026;-71
2023/05/25 00:50:44;;;;;;;5.32;2.10;;;12.60;99.90;;;;;;5013061;28;20087;-70
2023/05/25 00:53:11;;;;;;;10.60;2.70;;;12.50;99.90;;;;;;5028308;28;20089;-72
2023/05/25 00:56:07;;;;;;;14.70;3.10;;;12.50;99.90;;;;;;5013145;28;20466;-72
2023/05/25 00:58:34;;;;;;;10.93;2.70;;;12.40;99.90;;;;;;4998583;28;20498;-71
2023/05/25 01:01:03;;;;;;;4.68;3.17;;;12.30;99.90;;;;;;5013539;28;20026;-71
2023/05/25 01:03:36;;;;;;;7.18;2.35;;;12.30;99.90;;;;;;5012701;28;20033;-71
2023/05/25 01:06:05;;;;;;;9.90;2.50;;;12.30;99.90;;;;;;5012882;28;20076;-71
2023/05/25 01:08:34;;;;;;;14.93;2.72;;;12.20;99.90;;;;;;5013047;28;20026;-71
2023/05/25 01:11:03;;;;;;;3.75;1.92;;;12.20;99.90;;;;;;5011647;28;20025;-72
2023/05/25 01:13:30;;;;;;;12.32;2.10;;;12.20;99.90;;;;;;5012946;28;20029;-71
2023/05/25 01:15:56;;;;;;;8.25;2.70;;;12.20;99.90;;;;;;5012959;28;20026;-71
2023/05/25 01:18:22;;;;;;;8.05;2.47;;;12.10;99.90;;;;;;5012910;28;20068;-72
2023/05/25 01:21:13;;;;;;;5.72;2.25;;;12.10;99.90;;;;;;5012852;28;20022;-72
2023/05/25 01:23:49;;;;;;;6.88;2.45;;;12.10;99.90;;;;;;5012831;28;20585;-71
2023/05/25 01:26:17;;;;;;;8.73;2.60;;;12.00;99.90;;;;;;5013018;28;20030;-72
2023/05/25 01:28:50;;;;;;;4.13;2.55;;;12.00;99.90;;;;;;5012566;28;20565;-72
2023/05/25 01:31:20;;;;;;;8.65;3.67;;;12.00;99.90;;;;;;5012860;28;20096;-71
2023/05/25 01:33:48;;;;;;;5.25;2.45;;;11.90;99.90;;;;;;5012775;28;20125;-72
2023/05/25 01:36:14;;;;;;;;;;;11.90;99.90;;;;;;5013078;28;20450;-72
2023/05/25 01:38:40;;;;;;;5.43;2.85;;;11.90;99.90;;;;;;5012715;28;19933;-72
2023/05/25 01:41:06;;;;;;;3.92;2.58;;;11.90;99.90;;;;;;5012687;28;20033;-71
2023/05/25 01:43:31;;;;;;;5.15;2.42;;;11.90;99.90;;;;;;5012696;28;20030;-72
2023/05/25 01:46:08;;;;;;;6.68;1.80;;;11.90;99.90;;;;;;5012634;28;20037;-71
2023/05/25 01:48:46;;;;;;;4.78;2.70;;;11.80;99.90;;;;;;5012615;28;20026;-72
2023/05/25 01:51:31;;;;;;;4.85;2.38;;;11.80;99.90;;;;;;5011451;28;20029;-72
2023/05/25 01:54:10;;;;;;;6.60;2.38;;;11.80;99.90;;;;;;5012587;28;20041;-71
2023/05/25 01:56:37;;;;;;;8.73;2.33;;;11.70;99.90;;;;;;5012621;28;20145;-70
2023/05/25 01:59:05;;;;;;;5.90;2.63;;;11.60;99.90;;;;;;5012587;28;20026;-71
2023/05/25 02:01:33;;;;;;;10.95;3.17;;;11.60;99.90;;;;;;5012528;28;20272;-72
2023/05/25 02:04:00;;;;;;;8.70;2.42;;;11.60;99.90;;;;;;5014330;28;20030;-72
2023/05/25 02:06:26;;;;;;;10.70;2.50;;;11.70;99.90;;;;;;5016017;28;20089;-72
2023/05/25 02:08:51;;;;;;;6.57;2.30;;;11.70;99.90;;;;;;5015990;28;20108;-72
2023/05/25 02:11:17;;;;;;;4.95;2.20;;;11.70;99.90;;;;;;5016012;28;20407;-71
2023/05/25 02:13:43;;;;;;;3.03;2.35;;;11.60;99.90;;;;;;5015817;28;20033;-71
2023/05/25 02:16:08;;;;;;;10.80;3.35;;;11.60;99.90;;;;;;5015904;28;20033;-71
2023/05/25 02:18:34;;;;;;;7.63;2.47;;;11.50;99.90;;;;;;5015870;28;20046;-71
2023/05/25 02:21:00;;;;;;;8.48;2.40;;;11.50;99.90;;;;;;5015827;28;20101;-71
2023/05/25 02:23:25;;;;;;;7.18;2.65;;;11.50;99.90;;;;;;5015792;28;20161;-70
2023/05/25 02:25:51;;;;;;;8.02;2.67;;;11.40;99.90;;;;;;5015684;28;20034;-71
2023/05/25 02:28:17;;;;;;;5.03;2.55;;;11.40;99.90;;;;;;5015361;28;20442;-71
2023/05/25 02:30:43;;;;;;;7.25;2.95;;;11.30;99.90;;;;;;5015653;28;20117;-70
2023/05/25 02:33:08;;;;;;;6.50;2.72;;;11.20;99.90;;;;;;5015502;28;20129;-71
2023/05/25 02:35:34;;;;;;;9.43;2.65;;;11.20;99.90;;;;;;5015598;28;20489;-71
2023/05/25 02:38:00;;;;;;;6.78;2.95;;;11.10;99.90;;;;;;5015421;28;20028;-71
2023/05/25 02:40:26;;;;;;;7.90;3.17;;;11.10;99.90;;;;;;5015797;28;20112;-71
2023/05/25 02:42:51;;;;;;;5.40;2.83;;;11.00;99.90;;;;;;5015390;28;20425;-71
2023/05/25 02:45:17;;;;;;;14.70;2.53;;;11.00;99.90;;;;;;5015325;28;20025;-71
2023/05/25 02:47:42;;;;;;;5.93;2.53;;;11.00;99.90;;;;;;5015232;28;20478;-72
2023/05/25 02:50:08;;;;;;;7.57;2.55;;;11.10;99.90;;;;;;5015334;28;20036;-70
2023/05/25 02:52:34;;;;;;;11.52;3.08;;;11.00;99.90;;;;;;5015227;28;20030;-71
2023/05/25 02:55:00;;;;;;;12.30;3.70;;;10.90;99.90;;;;;;5015052;28;20438;-70
2023/05/25 02:57:26;;;;;;;10.68;2.92;;;10.90;99.90;;;;;;5015095;28;20030;-71
2023/05/25 02:59:51;;;;;;;10.38;3.75;;;10.80;99.90;;;;;;5015023;28;20076;-71
2023/05/25 03:02:19;;;;;;;4.00;2.40;;;10.90;99.90;;;;;;5030142;28;20105;-71
2023/05/25 03:04:45;;;;;;;;;;;10.90;99.90;;;;;;5015400;28;20375;-71
2023/05/25 03:07:11;;;;;;;7.72;2.72;;;10.90;99.90;;;;;;5013715;28;19916;-70
2023/05/25 03:09:38;;;;;;;10.25;2.83;;;10.90;99.90;;;;;;5014848;28;20037;-71
2023/05/25 03:12:03;;;;;;;4.07;2.08;;;10.80;99.90;;;;;;5013425;28;20025;-70
2023/05/25 03:14:29;;;;;;;6.07;2.45;;;10.80;99.90;;;;;;5014696;28;20025;-70
2023/05/25 03:16:55;;;;;;;6.28;2.65;;;10.80;99.90;;;;;;5014831;28;20491;-71
2023/05/25 03:19:20;;;;;;;8.93;2.90;;;10.90;99.90;;;;;;5014735;28;20037;-70
2023/05/25 03:21:46;;;;;;;3.97;2.47;;;10.90;99.90;;;;;;5014639;28;20542;-70
2023/05/25 03:24:12;;;;;;;12.10;2.88;;;10.80;99.90;;;;;;5014613;28;20025;-70
2023/05/25 03:26:38;;;;;;;5.28;2.90;;;10.80;99.90;;;;;;5029772;28;20032;-71
2023/05/25 03:29:05;;;;;;;8.60;2.38;;;10.80;99.90;;;;;;5014254;28;20052;-70
2023/05/25 03:31:31;;;;;;;5.40;2.72;;;10.80;99.90;;;;;;5014475;28;20030;-70
2023/05/25 03:33:57;;;;;;;5.07;2.42;;;10.80;99.90;;;;;;5013051;28;20030;-71
2023/05/25 03:36:26;;;;;;;8.02;3.55;;;10.70;99.90;;;;;;5014271;28;20471;-71
2023/05/25 03:38:52;;;;;;;6.63;2.90;;;10.60;99.90;;;;;;5014291;28;20021;-71
2023/05/25 03:41:17;;;;;;;5.22;2.67;;;10.60;99.90;;;;;;5014256;28;20044;-70
2023/05/25 03:43:43;;;;;;;5.88;2.58;;;10.60;99.90;;;;;;5014193;28;20026;-71
2023/05/25 03:46:10;;;;;;;9.45;3.72;;;10.60;99.90;;;;;;5014132;28;20026;-71
2023/05/25 03:48:36;;;;;;;4.28;3.20;;;10.70;99.90;;;;;;5029279;28;20113;-71
2023/05/25 03:51:02;;;;;;;5.50;2.83;;;10.70;99.90;;;;;;5013963;28;20032;-71
2023/05/25 03:53:28;;;;;;;6.25;2.60;;;10.60;99.90;;;;;;5013969;28;20479;-71
2023/05/25 03:55:54;;;;;;;6.65;3.05;;;10.60;99.90;;;;;;5014045;28;20033;-71
2023/05/25 03:58:19;;;;;;;6.78;3.08;;;10.60;99.90;;;;;;5013982;28;20018;-70
2023/05/25 04:00:47;;;;;;;9.40;3.05;;;10.70;99.90;;;;;;5013952;28;20445;-71
2023/05/25 04:03:13;;;;;;;7.57;3.13;;;10.70;99.90;;;;;;5013831;28;20455;-70
2023/05/25 04:05:40;;;;;;;8.65;3.42;;;10.70;99.90;;;;;;5013831;28;20029;-71
2023/05/25 04:08:07;;;;;;;8.23;3.38;;;10.70;99.90;;;;;;5013902;28;20510;-71
2023/05/25 04:10:33;;;;;;;9.48;3.38;;;10.60;99.90;;;;;;5013781;28;20393;-71
2023/05/25 04:12:58;;;;;;;5.43;3.00;;;10.60;99.90;;;;;;5013598;28;20026;-72
2023/05/25 04:15:24;;;;;;;5.93;2.90;;;10.50;99.90;;;;;;5013723;28;20029;-72
2023/05/25 04:17:50;;;;;;;13.90;3.83;;;10.60;99.90;;;;;;5013572;28;20088;-71
2023/05/25 04:20:16;;;;;;;9.07;2.97;;;10.60;99.90;;;;;;5013650;28;20097;-72
2023/05/25 04:22:43;;;;;;;9.02;3.33;;;10.60;99.90;;;;;;5013591;28;20029;-71
2023/05/25 04:25:09;;;;;;;4.50;3.03;;;10.60;99.90;;;;;;5013544;28;20371;-71
2023/05/25 04:27:35;;;;;;;9.38;3.53;;;10.70;99.90;;;;;;5012950;28;20552;-71
2023/05/25 04:30:02;;;;;;;13.32;5.13;;;10.70;99.90;;;;;;5013804;28;20097;-71
2023/05/25 04:32:30;;;;;;;4.78;2.72;;;10.70;99.90;;;;;;5013411;28;20096;-71
2023/05/25 04:34:57;;;;;;;15.32;3.58;;;10.70;99.90;;;;;;5013383;28;20033;-71
2023/05/25 04:37:26;;;;;;;4.80;2.67;;;10.70;99.90;;;;;;5013344;28;20383;-71
2023/05/25 04:39:52;;;;;;;10.15;3.70;;;10.80;99.90;;;;;;5013295;28;20393;-72
2023/05/25 04:42:18;;;;;;;8.45;3.05;;;10.90;99.90;;;;;;5013215;28;20041;-71
2023/05/25 04:44:44;;;;;;;5.30;2.67;;;10.90;99.90;;;;;;5013207;28;20022;-71
2023/05/25 04:47:09;;;;;;;8.13;3.83;;;11.00;99.90;;;;;;5013161;28;20021;-72
2023/05/25 04:49:35;;;;;;;10.27;3.17;;;11.00;99.90;;;;;;5028383;28;20072;-71
2023/05/25 04:52:01;;;;;;;11.23;3.10;;;11.00;99.90;;;;;;5013264;28;20045;-71
2023/05/25 04:54:27;;;;;;;8.43;3.45;;;11.10;99.90;;;;;;5013017;28;20072;-72
2023/05/25 04:56:52;;;;;;;10.88;3.53;;;11.10;99.90;;;;;;5012981;28;20022;-71
2023/05/25 04:59:18;;;;;;;12.57;3.30;;;11.20;99.90;;;;;;5028302;28;20022;-70
2023/05/25 05:01:44;;;;;;;10.13;3.40;;;11.20;99.90;;;;;;5013134;28;20018;-72
2023/05/25 05:04:10;;;;;;;6.35;2.67;;;11.20;99.90;;;;;;5013363;28;20032;-71
2023/05/25 05:06:36;;;;;;;14.57;3.40;;;11.20;99.90;;;;;;5028205;28;20030;-70
2023/05/25 05:09:02;;;;;;;9.75;3.38;;;11.30;99.90;;;;;;5013032;28;20029;-71
2023/05/25 05:11:28;;;;;;;7.15;3.40;;;11.30;99.90;;;;;;5013020;28;20026;-71
2023/05/25 05:13:54;;;;;;;12.23;3.40;;;11.40;99.90;;;;;;5012924;28;20083;-70
2023/05/25 05:16:20;;;;;;;11.88;2.97;;;11.40;99.90;;;;;;5012999;28;20562;-72
2023/05/25 05:18:46;;;;;;;12.40;3.60;;;11.50;99.90;;;;;;5013257;28;20101;-71
2023/05/25 05:21:11;;;;;;;12.32;2.95;;;11.50;99.90;;;;;;5012942;28;20033;-71
2023/05/25 05:23:37;;;;;;;6.40;3.20;;;11.50;99.90;;;;;;5012910;28;20029;-71
2023/05/25 05:26:03;;;;;;;11.48;2.95;;;11.60;99.90;;;;;;5012951;28;20033;-71
2023/05/25 05:28:30;;;;;;;14.38;4.10;;;11.70;99.90;;;;;;5012660;28;20532;-71
2023/05/25 05:30:56;;;;;;;11.90;2.97;;;11.70;99.90;;;;;;5012783;28;20037;-71
2023/05/25 05:33:25;;;;;;;6.57;2.30;;;11.90;99.90;;;;;;5012589;28;20070;-72
2023/05/25 05:35:51;;;;;;;9.38;2.97;;;12.00;99.90;;;;;;5012728;28;20021;-71
2023/05/25 05:38:17;;;;;;;13.52;4.00;;;12.10;99.90;;;;;;5013446;28;20500;-73
2023/05/25 05:40:43;;;;;;;12.43;3.25;;;12.20;99.90;;;;;;5016633;28;20053;-72
2023/05/25 05:43:11;;;;;;;10.45;3.55;;;12.30;99.90;;;;;;5016451;28;20034;-71
2023/05/25 05:45:36;;;;;;;;;;;12.40;99.90;;;;;;5016920;28;20026;-71
2023/05/25 05:48:03;;;;;;;12.30;2.97;;;12.50;99.90;;;;;;5016445;28;20442;-71
2023/05/25 05:50:29;;;;;;;9.48;3.70;;;12.60;99.90;;;;;;5016367;28;20482;-71
2023/05/25 05:52:55;;;;;;;14.90;3.80;;;12.70;99.90;;;;;;5031375;28;20022;-72
2023/05/25 05:55:21;;;;;;;12.50;4.20;;;12.70;99.90;;;;;;5016303;28;20076;-71
2023/05/25 05:57:46;;;;;;;9.15;3.30;;;12.80;99.90;;;;;;5016196;28;20018;-71
2023/05/25 06:00:13;;;;;;;8.65;3.35;;;12.90;99.90;;;;;;5016190;28;20029;-71
2023/05/25 06:02:39;;;;;;;14.80;3.58;;;13.00;99.90;;;;;;5015798;28;20045;-71
2023/05/25 06:05:05;;;;;;;9.05;3.63;;;13.20;99.90;;;;;;5016118;28;20022;-73
2023/05/25 06:07:33;;;;;;;8.00;3.65;;;13.20;99.90;;;;;;5016137;28;20026;-71
2023/05/25 06:09:59;;;;;;;11.40;2.92;;;13.20;99.90;;;;;;5016010;28;20025;-71
2023/05/25 06:12:25;;;;;;;12.27;3.50;;;13.40;99.90;;;;;;5015905;28;20026;-71
2023/05/25 06:14:51;;;;;;;12.73;4.25;;;13.40;99.90;;;;;;5015545;28;20512;-72
2023/05/25 06:17:17;;;;;;;17.88;3.95;;;13.60;99.90;;;;;;5016067;28;20021;-72
2023/05/25 06:19:43;;;;;;;8.95;3.42;;;14.10;99.90;;;;;;5015780;28;20471;-72
2023/05/25 06:22:09;;;;;;;13.25;3.10;;;14.50;99.90;;;;;;5015745;28;20032;-71
2023/05/25 06:24:35;;;;;;;8.32;3.13;;;14.60;99.90;;;;;;5016018;28;20096;-72
2023/05/25 06:27:02;;;;;;;15.15;3.70;;;14.40;99.90;;;;;;5030895;28;20022;-71
2023/05/25 06:29:28;;;;;;;12.60;4.07;;;14.30;99.90;;;;;;5015541;28;20058;-72
2023/05/25 06:31:53;;;;;;;9.80;3.45;;;14.30;99.90;;;;;;5015540;28;20029;-72
2023/05/25 06:34:19;;;;;;;8.48;3.33;;;14.30;99.90;;;;;;5015485;28;20026;-71
2023/05/25 06:36:46;;;;;;;7.68;3.38;;;14.20;99.90;;;;;;5015364;28;20049;-72
2023/05/25 06:39:12;;;;;;;13.50;3.77;;;14.20;99.90;;;;;;5015485;28;20383;-72
2023/05/25 06:41:39;;;;;;;9.23;3.38;;;14.30;99.90;;;;;;5015304;28;20261;-71
2023/05/25 06:44:05;;;;;;;8.68;2.83;;;14.60;99.90;;;;;;5015294;28;20029;-71
2023/05/25 06:46:31;;;;;;;11.88;3.45;;;15.30;99.90;;;;;;5030500;28;20482;-72
2023/05/25 06:48:59;;;;;;;9.50;2.75;;;16.20;99.90;;;;;;5014867;28;20076;-72
2023/05/25 06:51:26;;;;;;;10.75;3.30;;;17.30;99.90;;;;;;5015180;28;20045;-71
2023/05/25 06:53:52;;;;;;;6.53;3.17;;;18.10;99.90;;;;;;5015129;28;20096;-70
2023/05/25 06:56:18;;;;;;;8.68;3.05;;;18.10;99.90;;;;;;5015100;28;20026;-71
2023/05/25 06:58:44;;;;;;;8.13;2.45;;;18.20;99.90;;;;;;5030589;28;20032;-72
2023/05/25 07:01:09;;;;;;;3.63;2.42;;;18.20;99.90;;;;;;5015011;28;20026;-71
2023/05/25 07:03:37;;;;;;;5.25;2.33;;;18.20;99.90;;;;;;5015016;28;20033;-73
2023/05/25 07:06:04;;;;;;;6.25;2.17;;;17.90;99.90;;;;;;5015019;28;20053;-72
2023/05/25 07:08:30;;;;;;;7.13;1.70;;;17.70;99.90;;;;;;5014935;28;20029;-73
2023/05/25 07:10:56;;;;;;;9.25;2.55;;;18.20;99.90;;;;;;5014695;28;20038;-72
2023/05/25 07:13:21;;;;;;;7.35;2.60;;;18.20;99.90;;;;;;5014742;28;20543;-72
2023/05/25 07:15:47;;;;;;;4.57;2.00;;;18.10;99.90;;;;;;5014704;28;20017;-72
2023/05/25 07:18:13;;;;;;;15.70;2.55;;;18.20;99.90;;;;;;5014739;28;20497;-71
2023/05/25 07:20:40;;;;;;;5.38;1.77;;;17.90;99.90;;;;;;5014700;28;20025;-71
2023/05/25 07:23:10;;;;;;;8.88;2.30;;;17.60;99.90;;;;;;5014629;28;20022;-72
2023/05/25 07:25:37;;;;;;;6.18;2.25;;;17.40;99.90;;;;;;5014697;28;20475;-72
2023/05/25 07:28:03;;;;;;;8.70;2.35;;;17.10;99.90;;;;;;5014432;28;20068;-72
2023/05/25 07:30:29;;;;;;;7.50;2.53;;;16.90;99.90;;;;;;5014441;28;20022;-72
2023/05/25 07:32:55;;;;;;;4.65;2.25;;;16.90;99.90;;;;;;5014451;28;20483;-72
2023/05/25 07:35:21;;;;;;;4.40;1.75;;;17.20;99.90;;;;;;5014370;28;20022;-72
2023/05/25 07:37:55;;;;;;;4.05;2.38;;;17.30;99.90;;;;;;5014266;28;20029;-71
2023/05/25 07:40:21;;;;;;;9.35;2.40;;;17.50;99.90;;;;;;5014357;28;20061;-70
2023/05/25 07:42:46;;;;;;;2.47;1.58;;;17.50;99.90;;;;;;5014223;28;20050;-73
2023/05/25 07:45:12;;;;;;;7.43;2.17;;;17.10;99.90;;;;;;5014202;28;20081;-70
2023/05/25 07:47:38;;;;;;;4.22;1.80;;;16.60;99.90;;;;;;5014098;28;20026;-73
2023/05/25 07:50:04;;;;;;;4.13;2.00;;;16.20;99.90;;;;;;5014166;28;20564;-70
2023/05/25 07:52:29;;;;;;;6.82;1.88;;;15.80;99.90;;;;;;5014114;28;20076;-71
2023/05/25 07:54:55;;;;;;;5.78;2.10;;;15.70;99.90;;;;;;5013989;28;20109;-71
2023/05/25 07:57:20;;;;;;;10.63;2.63;;;15.80;99.90;;;;;;5013974;28;20095;-72
2023/05/25 07:59:46;;;;;;;7.13;1.55;;;16.10;99.90;;;;;;5014009;28;20029;-71
2023/05/25 08:02:12;;;;;;;5.57;1.60;;;16.40;99.90;;;;;;5013214;28;20390;-72
2023/05/25 08:04:37;;;;;;;7.18;1.75;;;16.50;99.90;;;;;;5013922;28;20109;-70
2023/05/25 08:07:03;;;;;;;3.05;1.55;;;16.30;99.90;;;;;;5013853;28;20030;-72
2023/05/25 08:09:29;;;;;;;3.90;1.50;;;16.20;99.90;;;;;;5013842;28;20025;-72
2023/05/25 08:11:54;;;;;;;2.70;1.25;;;16.30;99.90;;;;;;5013727;28;20026;-71
2023/05/25 08:14:20;;;;;;;5.55;1.52;;;16.40;99.90;;;;;;5013684;28;20072;-71
2023/05/25 08:16:46;;;;;;;2.70;1.30;;;16.30;99.90;;;;;;5013810;28;20026;-71
2023/05/25 08:19:11;;;;;;;6.97;1.65;;;16.50;99.90;;;;;;5013635;28;20026;-71
2023/05/25 08:21:38;;;;;;;4.85;1.40;;;16.70;99.90;;;;;;5028680;28;20030;-71
2023/05/25 08:24:04;;;;;;;2.27;1.20;;;16.70;99.90;;;;;;5028943;28;20033;-72
2023/05/25 08:26:31;;;;;;;8.18;1.63;;;16.70;99.90;;;;;;5013560;28;20076;-74
2023/05/25 08:28:56;;;;;;;6.72;2.03;;;16.30;99.90;;;;;;5013310;28;20399;-72
2023/05/25 08:31:22;;;;;;;2.75;1.77;;;16.30;99.90;;;;;;5013584;28;20034;-72
2023/05/25 08:33:47;;;;;;;4.25;2.17;;;16.30;99.90;;;;;;5028536;28;20037;-72
2023/05/25 08:36:13;;;;;;;7.50;2.28;;;16.30;99.90;;;;;;5013329;28;20041;-72
2023/05/25 08:38:39;;;;;;;6.18;1.73;;;16.60;99.90;;;;;;5013408;28;20025;-71
2023/05/25 08:41:06;;;;;;;5.90;1.85;;;16.80;99.90;;;;;;5013428;28;20033;-71
2023/05/25 08:43:32;;;;;;;10.73;2.10;;;16.90;99.90;;;;;;5013465;28;20018;-72
2023/05/25 08:46:03;;;;;;;4.72;1.65;;;16.90;99.90;;;;;;5013361;28;20492;-71
2023/05/25 08:48:31;;;;;;;9.23;2.25;;;17.00;99.90;;;;;;5013284;28;20521;-72
2023/05/25 08:51:04;;;;;;;7.32;1.83;;;16.90;99.90;;;;;;5013212;28;20030;-71
2023/05/25 08:53:35;;;;;;;2.80;1.50;;;17.10;99.90;;;;;;5011860;28;20125;-72
2023/05/25 08:56:07;;;;;;;7.90;1.70;;;17.50;99.90;;;;;;5013164;28;20101;-71
2023/05/25 08:58:42;;;;;;;4.65;1.40;;;18.30;99.90;;;;;;5013222;28;20101;-72
2023/05/25 09:01:08;;;;;;;3.85;1.88;;;19.20;99.90;;;;;;5013392;28;20018;-73
2023/05/25 09:03:35;;;;;;;4.72;1.85;;;19.60;99.90;;;;;;5012188;28;20018;-71
2023/05/25 09:06:01;;;;;;;6.00;1.60;;;20.10;99.90;;;;;;5013102;28;20064;-72
2023/05/25 09:08:27;;;;;;;7.82;1.50;;;20.10;99.90;;;;;;5013099;28;20026;-72
2023/05/25 09:10:55;;;;;;;7.43;1.90;;;19.40;99.90;;;;;;5011721;28;20382;-71
2023/05/25 09:13:20;;;;;;;;;;;19.10;99.90;;;;;;5017287;28;20065;-73
2023/05/25 09:15:47;;;;;;;2.55;1.25;;;19.10;99.90;;;;;;5021674;28;19910;-73
2023/05/25 09:18:12;;;;;;;3.08;1.40;;;19.10;99.90;;;;;;5022382;28;20026;-72
2023/05/25 09:20:38;;;;;;;4.57;1.45;;;19.40;99.90;;;;;;5023270;28;20025;-72
2023/05/25 09:23:04;;;;;;;5.80;1.75;;;19.50;99.90;;;;;;5018740;28;20037;-72
2023/05/25 09:25:31;;;;;;;5.03;1.17;;;19.50;99.90;;;;;;5016959;28;20100;-72
2023/05/25 09:27:57;;;;;;;4.95;1.55;;;19.00;99.90;;;;;;5016911;28;20042;-71
2023/05/25 09:30:23;;;;;;;4.47;1.23;;;18.40;99.90;;;;;;5017588;28;20018;-71
2023/05/25 09:32:50;;;;;;;5.53;2.05;;;17.90;99.90;;;;;;5018086;28;20014;-71
2023/05/25 09:35:16;;;;;;;11.70;1.83;;;17.60;99.90;;;;;;5017615;28;20036;-71
2023/05/25 09:37:43;;;;;;;6.60;2.25;;;17.40;99.90;;;;;;5017490;28;20022;-72
2023/05/25 09:40:12;;;;;;;2.28;1.45;;;17.40;99.90;;;;;;5017387;28;20030;-79
2023/05/25 09:42:37;;;;;;;7.03;2.00;;;17.40;99.90;;;;;;5017303;28;20095;-73
2023/05/25 09:45:04;;;;;;;6.20;1.83;;;17.00;99.90;;;;;;5017513;28;20058;-72
2023/05/25 09:47:30;;;;;;;5.82;1.77;;;16.60;99.90;;;;;;5017366;28;20026;-72
2023/05/25 09:49:56;;;;;;;4.15;1.83;;;16.30;99.90;;;;;;5017410;28;20034;-71
2023/05/25 09:52:23;;;;;;;5.38;1.42;;;16.00;99.90;;;;;;5017374;28;20500;-73
2023/05/25 09:54:50;;;;;;;7.13;2.28;;;15.90;99.90;;;;;;5017657;28;20053;-72
2023/05/25 09:57:17;;;;;;;5.65;1.35;;;15.80;99.90;;;;;;5017485;28;20041;-72
2023/05/25 09:59:44;;;;;;;6.40;1.88;;;15.90;99.90;;;;;;5017771;28;20076;-71
2023/05/25 10:02:10;;;;;;;3.45;1.33;;;15.80;99.90;;;;;;5017241;28;20025;-74
2023/05/25 10:04:36;;;;;;;5.28;1.50;;;15.70;99.90;;;;;;5017631;28;20021;-72
2023/05/25 10:07:03;;;;;;;4.63;1.45;;;15.60;99.90;;;;;;5017249;28;20033;-71
2023/05/25 10:09:29;;;;;;;3.08;1.30;;;15.70;99.90;;;;;;5017695;28;20049;-72
2023/05/25 10:12:00;;;;;;;5.82;1.67;;;15.70;99.90;;;;;;5014942;28;20537;-72
2023/05/25 10:14:27;;;;;;;5.40;1.25;;;15.70;99.90;;;;;;5016837;28;20553;-73
2023/05/25 10:16:54;;;;;;;5.95;1.80;;;15.70;99.90;;;;;;5032004;28;20022;-74
2023/05/25 10:19:30;;;;;;;7.25;1.85;;;15.90;99.90;;;;;;5016856;28;20470;-71
2023/05/25 10:22:14;;;;;;;5.63;2.30;;;15.90;99.90;;;;;;5017222;28;20033;-72
2023/05/25 10:24:48;;;;;;;3.22;1.55;;;16.00;99.90;;;;;;5016146;28;20032;-72
2023/05/25 10:27:20;;;;;;;9.98;2.25;;;16.10;99.90;;;;;;5016585;28;20497;-72
2023/05/25 10:29:48;;;;;;;6.03;2.03;;;16.30;99.90;;;;;;5016734;28;20046;-73
2023/05/25 10:32:16;;;;;;;7.57;1.85;;;16.30;99.90;;;;;;5016903;28;20037;-73
2023/05/25 10:34:41;;;;;;;6.53;2.78;;;16.30;99.90;;;;;;5016558;28;20506;-73
2023/05/25 10:37:08;;;;;;;5.93;2.47;;;16.30;99.90;;;;;;5016985;28;20022;-72
2023/05/25 10:39:35;;;;;;;4.38;1.73;;;16.30;99.90;;;;;;5017438;28;20028;-72
2023/05/25 10:42:02;;;;;;;6.97;2.72;;;16.20;99.90;;;;;;5016753;28;20029;-72
2023/05/25 10:44:29;;;;;;;10.68;2.67;;;16.10;99.90;;;;;;5016431;28;20018;-71
2023/05/25 10:46:55;;;;;;;8.32;2.33;;;16.00;99.90;;;;;;5016527;28;20034;-72
2023/05/25 10:49:54;;;;;;;10.85;3.40;;;15.90;99.90;;;;;;5016449;28;20073;-73
2023/05/25 10:52:20;;;;;;;5.90;3.00;;;15.90;99.90;;;;;;5016353;28;20034;-71
2023/05/25 10:54:55;;;;;;;5.18;2.45;;;16.10;99.90;;;;;;5016018;28;20030;-73
2023/05/25 10:57:22;;;;;;;14.50;2.55;;;16.30;99.90;;;;;;5016227;28;20021;-73
2023/05/25 10:59:54;;;;;;;13.25;3.03;;;16.40;99.90;;;;;;5016985;28;20105;-73
2023/05/25 11:02:23;;;;;;;9.80;2.05;;;16.50;99.90;;;;;;5016965;28;20053;-73
2023/05/25 11:04:49;;;;;;;11.98;2.92;;;16.60;99.90;;;;;;5016163;28;20031;-73
2023/05/25 11:07:18;;;;;;;6.45;2.15;;;16.70;99.90;;;;;;5031035;28;20120;-72
2023/05/25 11:09:56;;;;;;;5.68;2.10;;;16.80;99.90;;;;;;5016122;28;20033;-75
2023/05/25 11:12:22;;;;;;;9.02;2.38;;;17.00;99.90;;;;;;5015733;28;20018;-73
2023/05/25 11:15:09;;;;;;;7.60;2.50;;;17.10;99.90;;;;;;5015843;28;20474;-72
2023/05/25 11:17:43;;;;;;;;;;;17.30;99.90;;;;;;5016444;28;20022;-78
2023/05/25 11:20:21;;;;;;;4.72;2.70;;;17.30;99.90;;;;;;5015693;28;20416;-75
2023/05/25 11:22:50;;;;;;;11.02;3.92;;;17.20;99.90;;;;;;5016122;28;20068;-74
2023/05/25 11:25:35;;;;;;;7.45;2.05;;;17.00;99.90;;;;;;5015363;28;20032;-72
2023/05/25 11:28:06;;;;;;;7.70;2.75;;;16.80;99.90;;;;;;5015394;28;20049;-73
2023/05/25 11:30:32;;;;;;;6.47;2.65;;;16.60;99.90;;;;;;5015804;28;20018;-75
2023/05/25 11:33:02;;;;;;;8.57;2.67;;;16.50;99.90;;;;;;5015708;28;20030;-71
2023/05/25 11:35:28;;;;;;;10.20;2.63;;;16.40;99.90;;;;;;5014797;28;20029;-72
2023/05/25 11:37:53;;;;;;;7.55;2.50;;;16.40;99.90;;;;;;5014933;28;20022;-73
2023/05/25 11:40:22;;;;;;;9.75;2.53;;;16.40;99.90;;;;;;5015874;28;20549;-72
2023/05/25 11:42:50;;;;;;;6.53;2.58;;;16.50;99.90;;;;;;5016185;28;20083;-72
2023/05/25 11:45:16;;;;;;;6.85;2.28;;;16.60;99.90;;;;;;5015454;28;20609;-71
2023/05/25 11:47:42;;;;;;;6.60;1.95;;;16.70;99.90;;;;;;5015434;28;20045;-73
2023/05/25 11:50:15;;;;;;;6.43;2.00;;;16.60;99.90;;;;;;5016072;28;20022;-72
2023/05/25 11:52:41;;;;;;;7.47;2.25;;;16.50;99.90;;;;;;5014446;28;20029;-72
2023/05/25 11:55:12;;;;;;;6.22;2.15;;;16.50;99.90;;;;;;5015101;28;20026;-73
2023/05/25 11:57:39;;;;;;;6.88;1.92;;;16.50;99.90;;;;;;5015752;28;20025;-72
2023/05/25 12:00:05;;;;;;;4.63;1.75;;;16.60;99.90;;;;;;5015426;28;20473;-74
2023/05/25 12:02:37;;;;;;;7.43;2.72;;;16.60;99.90;;;;;;5015667;28;20054;-73
2023/05/25 12:05:03;;;;;;;21.35;3.10;;;16.70;99.90;;;;;;5015431;28;20029;-73
2023/05/25 12:07:30;;;;;;;19.30;3.30;;;16.60;99.90;;;;;;5014578;28;20343;-72
2023/05/25 12:10:11;;;;;;;7.75;2.13;;;16.60;99.90;;;;;;5015126;28;20026;-72
2023/05/25 12:12:49;;;;;;;7.32;2.47;;;16.60;99.90;;;;;;5014431;28;20598;-71
2023/05/25 12:15:19;;;;;;;2.33;1.30;;;16.70;99.90;;;;;;5013877;28;20030;-71
2023/05/25 12:17:45;;;;;;;4.95;1.58;;;16.70;99.90;;;;;;5014108;28;20026;-70
2023/05/25 12:20:14;;;;;;;5.53;1.70;;;16.60;99.90;;;;;;5014195;28;20021;-71
2023/05/25 12:22:40;;;;;;;6.10;1.20;;;16.60;99.90;;;;;;5014262;28;20406;-71
2023/05/25 12:25:07;;;;;;;3.90;1.50;;;16.50;99.90;;;;;;5014237;28;20036;-71
2023/05/25 12:27:33;;;;;;;9.88;1.73;;;16.50;99.90;;;;;;5012621;28;20026;-71
2023/05/25 12:29:59;;;;;;;4.70;1.30;;;16.60;99.90;;;;;;5013360;28;20049;-72
2023/05/25 12:32:25;;;;;;;3.75;1.15;;;16.70;99.90;;;;;;5013883;28;20084;-71
2023/05/25 12:34:59;;;;;;;7.65;2.00;;;16.70;99.90;;;;;;5013796;28;20569;-71
2023/05/25 12:37:25;;;;;;;5.75;1.83;;;16.70;99.90;;;;;;5013564;28;20022;-72
2023/05/25 12:39:51;;;;;;;5.55;1.65;;;16.70;99.90;;;;;;5013563;28;20022;-72
2023/05/25 12:42:17;;;;;;;7.07;1.88;;;16.70;99.90;;;;;;5013588;28;20509;-71
2023/05/25 12:44:45;;;;;;;5.30;1.70;;;16.80;99.90;;;;;;5013518;28;20030;-72
2023/05/25 12:47:19;;;;;;;5.25;2.15;;;16.70;99.90;;;;;;5013314;28;20053;-73